首页
METAR-TAF:

METAR-TAF

机场 :

蘇聖瑪麗, 安大略省, 加拿大

纬度: 46-29N, 经度: 084-30W, 海拔: 187米

当前天气观测

该预报发布于19分钟前的12:00 UTC
风速12节,风向西北
温度 -15°C
湿度 65%
气压 1009 hPa
能見度: 32.2公里
少量云层高于6700英尺
散云层高于10000英尺
多云层高于16000英尺

METAR: CYAM 271200Z 31012KT 20SM FEW067 SCT100 BKN160 M15/M20 A2981 RMK AC1AS3AS3 SLP112

时间: 07:19 (12:19 UTC)

预报

该预报发布于4小时和41分钟前的07:38 UTC
预报有效从27日的 08点(UTC)到 27日的 20点(UTC)
风速10节,风向北转西北
能見度: 10公里
少量云层高于2000英尺
多云层高于10000英尺
短暂存在
从 27日的 08点(UTC)到 27日的 12点(UTC)
散云层高于2000英尺
阴天层高于10000英尺
成为
从 27日的 10点(UTC)到 27日的 12点(UTC)
风速15节,风向北转西北,有时为25节阵风
从 27日的 1200点(UTC)
风速15节,风向北转西北,有时为25节阵风
能見度: 10公里
散云层高于1500英尺
阴天层高于12000英尺
短暂存在
从 27日的 12点(UTC)到 27日的 15点(UTC)
能見度: 4.8公里
阴天层高于1500英尺
小阵雪
从 27日的 1500点(UTC)
风速18节,风向北转西北,有时为28节阵风
能見度: 9.7公里
阴天层高于5000英尺
小雪
短暂存在
从 27日的 15点(UTC)到 27日的 18点(UTC)
能見度: 3.2公里
阴天层高于1500英尺
小雪, 高吹雪
从 27日的 1800点(UTC)
风速20节,风向北转西北,有时为30节阵风
能見度: 3.2公里
阴天层高于1500英尺
小雪, 高吹雪

TAF: CYAM 270738Z 2708/2720 34010KT P6SM FEW020 BKN100 TEMPO 2708/2712 SCT020 OVC100 BECMG 2710/2712 33015G25KT FM271200 33015G25KT P6SM SCT015 OVC120 TEMPO 2712/2715 3SM -SHSN OVC015 FM271500 33018G28KT 6SM -SN OVC050 TEMPO 2715/2718 2SM -SN BLSN OVC015 FM271800 33020G30KT 2SM -SN BLSN OVC015 RMK NXT FCST BY 271400Z

超过4000个机场的气象观测和天气预报(METAR&TAF报告)。

可查询的气象台以黄色和红色小点在地图上表示。

将鼠标移到小点上方,可查看气象台名称。

然后点击查看天气观测和预报。

如需切换地图:点击带黑十字的绿色按钮放大地图;点击带横线的绿色按钮缩小地图;或者点击绿色箭头查看邻近地区的地图。


METAR-TAF: